Аэропорт: Усть-Каменогорск. Усть-Каменогорск

ICAO: UASK

METAR:
2022-01-28 08:00:00
UASK 280800Z 32001MPS 9999 SCT100 M16/M18 Q1030 NOSIG RMK QFE746/0995
METAR:
Информация по данной станции не доступна